createdAt,value
2023-05-11T00:01:06.018Z,6.90
2023-05-11T00:03:07.828Z,6.97
2023-05-11T00:05:09.823Z,7.38
2023-05-11T00:07:11.377Z,6.88
2023-05-11T00:09:13.020Z,7.00
2023-05-11T00:11:14.792Z,7.15
2023-05-11T00:13:16.744Z,7.05
2023-05-11T00:15:18.402Z,6.55
2023-05-11T00:17:20.667Z,6.82
2023-05-11T00:19:22.393Z,6.20
2023-05-11T00:21:24.009Z,6.35
2023-05-11T00:23:25.618Z,7.22
2023-05-11T00:25:27.524Z,7.10
2023-05-11T00:27:29.131Z,7.30
2023-05-11T00:29:30.861Z,6.70
2023-05-11T00:31:32.781Z,7.32
2023-05-11T00:33:34.408Z,7.13
2023-05-11T00:35:36.127Z,7.32
2023-05-11T00:37:38.613Z,6.70
2023-05-11T00:39:40.783Z,6.68
2023-05-11T00:41:42.426Z,7.20
2023-05-11T00:43:43.993Z,7.40
2023-05-11T00:45:48.151Z,7.22
2023-05-11T00:47:50.055Z,7.40
2023-05-11T00:49:53.373Z,7.72
2023-05-11T00:51:55.276Z,7.55
2023-05-11T00:53:57.202Z,7.85
2023-05-11T00:55:59.247Z,7.43
2023-05-11T00:58:00.860Z,7.80
2023-05-11T01:00:03.777Z,7.88
2023-05-11T01:02:05.620Z,7.57
2023-05-11T01:04:07.501Z,7.40
2023-05-11T01:06:17.206Z,7.30
2023-05-11T01:08:22.705Z,7.35
2023-05-11T01:10:31.430Z,8.00
2023-05-11T01:12:48.231Z,7.50
2023-05-11T01:15:15.144Z,7.38
2023-05-11T01:17:24.163Z,8.50
2023-05-11T01:19:47.694Z,7.18
2023-05-11T01:21:50.909Z,7.07
2023-05-11T01:24:07.431Z,7.90
2023-05-11T01:26:11.551Z,7.68
2023-05-11T01:28:58.127Z,7.78
2023-05-11T01:31:11.862Z,8.32
2023-05-11T01:33:14.721Z,7.57
2023-05-11T01:35:21.493Z,7.70
2023-05-11T01:37:23.993Z,8.38
2023-05-11T01:39:32.371Z,8.30
2023-05-11T01:41:35.069Z,8.27
2023-05-11T01:43:37.800Z,8.07
2023-05-11T01:45:43.160Z,8.57
2023-05-11T01:47:45.566Z,8.80
2023-05-11T01:49:47.583Z,8.80
2023-05-11T01:51:51.514Z,8.48
2023-05-11T01:53:53.632Z,9.10
2023-05-11T01:55:56.486Z,8.57
2023-05-11T01:57:58.951Z,8.48
2023-05-11T02:00:01.449Z,8.63
2023-05-11T02:02:04.197Z,9.07
2023-05-11T02:04:06.066Z,8.68
2023-05-11T02:06:08.013Z,9.00
2023-05-11T02:08:10.357Z,8.52
2023-05-11T02:10:13.969Z,8.80
2023-05-11T02:12:18.550Z,8.70
2023-05-11T02:14:21.760Z,8.88
2023-05-11T02:16:24.544Z,8.48
2023-05-11T02:18:27.425Z,8.33
2023-05-11T02:20:29.011Z,9.75
2023-05-11T02:22:30.937Z,15.65
2023-05-11T02:24:32.703Z,11.35
2023-05-11T02:26:34.441Z,7.82
2023-05-11T02:28:36.196Z,8.43
2023-05-11T02:30:48.549Z,8.15
2023-05-11T02:32:53.035Z,7.78
2023-05-11T02:34:59.187Z,8.88
2023-05-11T02:37:02.858Z,7.88
2023-05-11T02:39:08.186Z,7.72
2023-05-11T02:41:13.205Z,7.78
2023-05-11T02:43:20.730Z,7.55
2023-05-11T02:45:23.378Z,7.78
2023-05-11T02:47:28.786Z,7.43
2023-05-11T02:49:32.035Z,7.68
2023-05-11T02:51:36.933Z,8.15
2023-05-11T02:53:40.877Z,8.07
2023-05-11T02:55:42.949Z,7.00
2023-05-11T02:57:45.546Z,7.07
2023-05-11T02:59:47.266Z,7.38
2023-05-11T03:01:49.375Z,7.10
2023-05-11T03:03:51.311Z,9.68
2023-05-11T03:05:53.122Z,7.20
2023-05-11T03:07:57.961Z,7.53
2023-05-11T03:10:00.409Z,7.03
2023-05-11T03:12:03.016Z,7.65
2023-05-11T03:14:04.767Z,8.00
2023-05-11T03:16:06.828Z,7.68
2023-05-11T03:18:08.492Z,7.63
2023-05-11T03:20:10.592Z,8.18
2023-05-11T03:22:12.182Z,7.60
2023-05-11T03:24:14.177Z,7.45
2023-05-11T03:26:18.018Z,8.18
2023-05-11T03:30:22.111Z,7.68
2023-05-11T03:32:24.318Z,8.38
2023-05-11T03:34:26.167Z,7.90
2023-05-11T03:36:28.158Z,8.85
2023-05-11T03:38:30.882Z,7.78
2023-05-11T03:40:34.647Z,8.57
2023-05-11T03:42:36.579Z,8.73
2023-05-11T03:44:38.596Z,8.90
2023-05-11T03:46:41.346Z,9.10
2023-05-11T03:48:43.551Z,8.60
2023-05-11T03:50:45.390Z,8.50
2023-05-11T03:52:48.112Z,8.82
2023-05-11T03:54:49.815Z,8.73
2023-05-11T03:56:52.299Z,8.27
2023-05-11T03:58:54.332Z,8.18
2023-05-11T04:00:56.125Z,8.35
2023-05-11T04:02:57.762Z,9.75
2023-05-11T04:04:59.316Z,9.07
2023-05-11T04:07:01.314Z,8.77
2023-05-11T04:09:02.949Z,8.80
2023-05-11T04:11:04.573Z,9.55
2023-05-11T04:13:06.244Z,9.82
2023-05-11T04:15:08.214Z,8.77
2023-05-11T04:17:10.251Z,9.15
2023-05-11T04:19:11.839Z,10.27
2023-05-11T04:21:13.432Z,9.65
2023-05-11T04:23:15.798Z,10.02
2023-05-11T04:25:17.798Z,9.45
2023-05-11T04:27:19.451Z,9.90
2023-05-11T04:29:21.038Z,10.52
2023-05-11T04:31:22.698Z,10.70
2023-05-11T04:33:24.441Z,10.32
2023-05-11T04:35:26.101Z,11.20
2023-05-11T04:37:27.711Z,10.85
2023-05-11T04:39:29.319Z,10.85
2023-05-11T04:41:30.877Z,11.15
2023-05-11T04:43:32.846Z,10.63
2023-05-11T04:45:34.407Z,12.35
2023-05-11T04:47:36.032Z,12.02
2023-05-11T04:49:37.724Z,12.80
2023-05-11T04:51:39.465Z,12.45
2023-05-11T04:53:42.196Z,12.45
2023-05-11T04:55:44.055Z,13.10
2023-05-11T04:57:45.648Z,11.82
2023-05-11T04:59:47.286Z,12.35
2023-05-11T05:01:48.961Z,12.82
2023-05-11T05:03:50.901Z,13.05
2023-05-11T05:05:52.606Z,12.13
2023-05-11T05:07:54.317Z,13.07
2023-05-11T05:09:55.927Z,13.55
2023-05-11T05:11:57.487Z,14.02
2023-05-11T05:13:59.064Z,13.75
2023-05-11T05:16:00.669Z,14.70
2023-05-11T05:18:02.328Z,13.60
2023-05-11T05:20:04.816Z,14.77
2023-05-11T05:22:06.858Z,15.50
2023-05-11T05:24:11.362Z,15.48
2023-05-11T05:26:12.992Z,16.45
2023-05-11T05:28:14.571Z,16.52
2023-05-11T05:30:16.673Z,14.82
2023-05-11T05:32:18.392Z,15.50
2023-05-11T05:34:19.950Z,15.60
2023-05-11T05:36:21.548Z,16.67
2023-05-11T05:38:23.167Z,15.43
2023-05-11T05:40:24.778Z,16.20
2023-05-11T05:42:26.379Z,16.77
2023-05-11T05:44:27.997Z,14.45
2023-05-11T05:46:29.710Z,14.68
2023-05-11T05:48:31.328Z,14.88
2023-05-11T05:50:33.317Z,15.02
2023-05-11T05:52:34.953Z,14.43
2023-05-11T05:54:36.524Z,14.48
2023-05-11T05:56:38.092Z,14.38
2023-05-11T05:58:39.853Z,14.75
2023-05-11T06:00:41.665Z,14.50
2023-05-11T06:02:43.328Z,13.68
2023-05-11T06:04:44.980Z,14.13
2023-05-11T06:06:46.730Z,14.52
2023-05-11T06:08:48.333Z,13.60
2023-05-11T06:10:49.921Z,13.68
2023-05-11T06:12:51.622Z,13.23
2023-05-11T06:14:53.208Z,13.75
2023-05-11T06:16:54.819Z,14.73
2023-05-11T06:18:56.770Z,13.07
2023-05-11T06:20:59.314Z,14.55
2023-05-11T06:23:00.911Z,14.57
2023-05-11T06:25:03.033Z,16.35
2023-05-11T06:27:04.611Z,14.50
2023-05-11T06:29:06.319Z,13.82
2023-05-11T06:31:07.983Z,15.57
2023-05-11T06:33:09.601Z,16.27
2023-05-11T06:35:11.298Z,14.98
2023-05-11T06:37:16.232Z,14.23
2023-05-11T06:39:17.879Z,15.00
2023-05-11T06:41:19.479Z,14.60
2023-05-11T06:43:21.626Z,14.60
2023-05-11T06:45:23.277Z,14.77
2023-05-11T06:47:25.025Z,13.80
2023-05-11T06:49:27.053Z,14.18
2023-05-11T06:51:28.645Z,15.60
2023-05-11T06:53:30.238Z,13.80
2023-05-11T06:55:31.826Z,14.23
2023-05-11T06:57:33.456Z,14.32
2023-05-11T06:59:35.128Z,14.93
2023-05-11T07:01:36.807Z,15.40
2023-05-11T07:03:38.365Z,15.45
2023-05-11T07:05:40.218Z,15.65
2023-05-11T07:07:42.153Z,16.90
2023-05-11T07:09:43.846Z,14.70
2023-05-11T07:11:45.532Z,15.02
2023-05-11T07:13:47.187Z,14.18
2023-05-11T07:15:49.817Z,17.52
2023-05-11T07:17:52.735Z,15.68
2023-05-11T07:19:55.530Z,14.02
2023-05-11T07:21:57.213Z,14.35
2023-05-11T07:23:59.384Z,14.68
2023-05-11T07:26:01.172Z,15.05
2023-05-11T07:28:03.560Z,14.07
2023-05-11T07:30:05.945Z,13.68
2023-05-11T07:32:07.551Z,13.00
2023-05-11T07:34:09.161Z,11.55
2023-05-11T07:36:10.783Z,11.55
2023-05-11T07:38:13.837Z,12.43
2023-05-11T07:40:15.551Z,11.95
2023-05-11T07:42:17.235Z,11.85
2023-05-11T07:44:18.781Z,12.40
2023-05-11T07:46:20.393Z,12.38
2023-05-11T07:48:22.346Z,11.95
2023-05-11T07:50:24.623Z,11.77
2023-05-11T07:52:26.812Z,11.40
2023-05-11T07:54:28.406Z,12.98
2023-05-11T07:56:29.996Z,11.88
2023-05-11T07:58:32.599Z,12.10
2023-05-11T08:00:34.491Z,11.35
2023-05-11T08:02:36.273Z,11.38
2023-05-11T08:04:38.028Z,11.95
2023-05-11T08:06:40.085Z,12.80
2023-05-11T08:08:41.809Z,11.20
2023-05-11T08:10:43.440Z,10.40
2023-05-11T08:12:44.991Z,10.45
2023-05-11T08:14:46.527Z,10.23
2023-05-11T08:16:49.668Z,10.27
2023-05-11T08:18:51.383Z,10.98
2023-05-11T08:20:53.654Z,10.70
2023-05-11T08:22:55.263Z,10.15
2023-05-11T08:24:56.873Z,9.48
2023-05-11T08:26:58.573Z,9.52
2023-05-11T08:29:00.370Z,10.05
2023-05-11T08:31:01.992Z,8.75
2023-05-11T08:33:36.589Z,7.78
2023-05-11T08:35:40.337Z,9.30
2023-05-11T08:37:41.887Z,9.55
2023-05-11T08:39:47.593Z,10.77
2023-05-11T08:41:51.659Z,10.68
2023-05-11T08:43:55.241Z,9.88
2023-05-11T08:46:01.727Z,9.20
2023-05-11T08:48:04.355Z,9.35
2023-05-11T08:50:06.723Z,9.38
2023-05-11T08:52:09.370Z,9.43
2023-05-11T08:54:11.208Z,9.15
2023-05-11T08:56:13.292Z,9.45
2023-05-11T08:58:19.583Z,9.70
2023-05-11T09:00:23.249Z,9.05
2023-05-11T09:02:25.606Z,8.75
2023-05-11T09:04:27.507Z,9.68
2023-05-11T09:06:29.720Z,8.90
2023-05-11T09:08:31.868Z,8.15
2023-05-11T09:10:33.526Z,8.55
2023-05-11T09:12:35.894Z,8.38
2023-05-11T09:14:37.577Z,8.05
2023-05-11T09:16:39.363Z,8.02
2023-05-11T09:18:48.502Z,7.65
2023-05-11T09:20:50.729Z,7.72
2023-05-11T09:22:53.319Z,8.10
2023-05-11T09:24:55.010Z,9.10
2023-05-11T09:27:09.791Z,8.23
2023-05-11T09:29:11.757Z,7.78
2023-05-11T09:31:13.461Z,7.30
2023-05-11T09:33:21.818Z,8.95
2023-05-11T09:35:33.942Z,8.60
2023-05-11T09:37:35.521Z,7.90
2023-05-11T09:39:44.154Z,8.30
2023-05-11T09:42:16.828Z,8.15
2023-05-11T09:44:18.696Z,8.82
2023-05-11T09:46:23.322Z,7.90
2023-05-11T09:48:27.423Z,7.72
2023-05-11T09:50:35.483Z,8.00
2023-05-11T09:52:49.960Z,8.15
2023-05-11T09:54:52.302Z,6.95
2023-05-11T09:56:56.782Z,6.43
2023-05-11T09:58:59.400Z,7.75
2023-05-11T10:01:00.967Z,8.82
2023-05-11T10:03:08.093Z,8.95
2023-05-11T10:05:13.573Z,7.97
2023-05-11T10:07:30.475Z,7.50
2023-05-11T10:09:33.093Z,8.38
2023-05-11T10:11:34.910Z,7.47
2023-05-11T10:13:37.945Z,7.38
2023-05-11T10:15:39.543Z,7.68
2023-05-11T10:17:44.712Z,7.50
2023-05-11T10:19:47.598Z,6.28
2023-05-11T10:21:50.137Z,6.60
2023-05-11T10:23:51.732Z,6.55
2023-05-11T10:25:54.036Z,7.70
2023-05-11T10:27:55.769Z,7.88
2023-05-11T10:29:58.613Z,7.90
2023-05-11T10:32:01.734Z,6.93
2023-05-11T10:34:04.517Z,7.82
2023-05-11T10:36:08.220Z,7.90
2023-05-11T10:38:10.079Z,7.38
2023-05-11T10:40:12.013Z,7.85
2023-05-11T10:42:13.604Z,7.10
2023-05-11T10:44:33.944Z,6.80
2023-05-11T10:46:54.036Z,6.95
2023-05-11T10:49:12.106Z,7.68
2023-05-11T10:51:19.475Z,6.93
2023-05-11T10:53:33.427Z,7.30
2023-05-11T10:56:06.329Z,7.22
2023-05-11T10:58:10.932Z,6.55
2023-05-11T11:00:30.912Z,7.15
2023-05-11T11:02:32.630Z,6.53
2023-05-11T11:04:51.717Z,6.68
2023-05-11T11:07:06.668Z,6.32
2023-05-11T11:09:13.661Z,5.90
2023-05-11T11:11:42.588Z,6.32
2023-05-11T11:13:57.031Z,5.80
2023-05-11T11:16:08.297Z,6.03
2023-05-11T11:18:29.957Z,5.82
2023-05-11T11:20:52.317Z,6.03
2023-05-11T11:22:54.012Z,6.15
2023-05-11T11:24:55.581Z,5.57
2023-05-11T11:26:57.366Z,5.60
2023-05-11T11:29:01.758Z,5.47
2023-05-11T11:31:29.242Z,6.70
2023-05-11T11:33:32.834Z,5.70
2023-05-11T11:35:43.659Z,5.78
2023-05-11T11:38:04.172Z,5.88
2023-05-11T11:40:14.575Z,5.75
2023-05-11T11:42:37.914Z,5.60
2023-05-11T11:44:40.774Z,4.80
2023-05-11T11:46:42.510Z,5.20
2023-05-11T11:48:44.112Z,5.47
2023-05-11T11:50:47.949Z,5.57
2023-05-11T11:52:49.639Z,5.70
2023-05-11T11:54:51.425Z,5.90
2023-05-11T11:56:53.411Z,5.88
2023-05-11T11:58:59.504Z,5.70
2023-05-11T12:01:01.343Z,5.47
2023-05-11T12:03:03.664Z,5.60
2023-05-11T12:05:18.775Z,6.00
2023-05-11T12:07:21.467Z,5.93
2023-05-11T12:09:23.519Z,5.65
2023-05-11T12:11:26.317Z,5.40
2023-05-11T12:13:28.474Z,5.93
2023-05-11T12:15:32.390Z,5.60
2023-05-11T12:17:38.764Z,6.20
2023-05-11T12:19:42.208Z,6.80
2023-05-11T12:21:45.469Z,5.95
2023-05-11T12:23:56.545Z,5.93
2023-05-11T12:26:07.451Z,6.70
2023-05-11T12:28:09.896Z,6.53
2023-05-11T12:30:19.959Z,7.20
2023-05-11T12:32:29.463Z,6.47
2023-05-11T12:34:31.166Z,6.97
2023-05-11T12:36:34.520Z,6.78
2023-05-11T12:38:46.288Z,6.60
2023-05-11T12:40:52.107Z,7.05
2023-05-11T12:42:56.077Z,7.00
2023-05-11T12:44:57.816Z,6.53
2023-05-11T12:46:59.534Z,6.50
2023-05-11T12:49:01.206Z,7.13
2023-05-11T12:51:02.834Z,6.75
2023-05-11T12:53:14.065Z,7.20
2023-05-11T12:55:27.094Z,7.65
2023-05-11T12:57:30.325Z,7.60
2023-05-11T12:59:37.620Z,7.63
2023-05-11T13:01:39.324Z,7.80
2023-05-11T13:03:45.900Z,7.32
2023-05-11T13:05:47.924Z,8.23
2023-05-11T13:07:58.662Z,8.32
2023-05-11T13:10:01.348Z,7.90
2023-05-11T13:12:18.234Z,8.70
2023-05-11T13:14:19.766Z,7.63
2023-05-11T13:16:29.408Z,7.90
2023-05-11T13:18:31.441Z,8.45
2023-05-11T13:20:34.253Z,8.52
2023-05-11T13:22:36.233Z,8.40
2023-05-11T13:24:37.860Z,8.55
2023-05-11T13:26:39.422Z,8.13
2023-05-11T13:28:41.238Z,8.55
2023-05-11T13:30:43.577Z,8.65
2023-05-11T13:32:45.176Z,8.18
2023-05-11T13:34:46.910Z,8.35
2023-05-11T13:36:48.674Z,8.45
2023-05-11T13:38:51.559Z,8.13
2023-05-11T13:40:53.186Z,8.67
2023-05-11T13:42:54.843Z,7.95
2023-05-11T13:44:56.445Z,9.07
2023-05-11T13:46:58.126Z,8.18
2023-05-11T13:49:00.478Z,9.25
2023-05-11T13:51:02.114Z,9.43
2023-05-11T13:53:03.726Z,8.93
2023-05-11T13:55:05.873Z,9.23
2023-05-11T13:57:07.662Z,9.73
2023-05-11T13:59:09.496Z,9.40
2023-05-11T14:01:11.162Z,8.38
2023-05-11T14:03:13.096Z,8.20
2023-05-11T14:05:14.886Z,8.43
2023-05-11T14:07:16.537Z,7.80
2023-05-11T14:09:18.272Z,8.00
2023-05-11T14:11:21.031Z,7.40
2023-05-11T14:13:22.939Z,7.38
2023-05-11T14:15:24.532Z,7.13
2023-05-11T14:17:26.157Z,7.28
2023-05-11T14:19:27.916Z,7.35
2023-05-11T14:21:29.573Z,7.38
2023-05-11T14:23:31.195Z,6.40
2023-05-11T14:25:32.835Z,7.13
2023-05-11T14:27:34.503Z,6.57
2023-05-11T14:29:37.747Z,6.63
2023-05-11T14:31:42.137Z,6.03
2023-05-11T14:33:43.738Z,6.03
2023-05-11T14:35:45.641Z,6.22
2023-05-11T14:37:47.681Z,5.95
2023-05-11T14:39:49.308Z,6.53
2023-05-11T14:41:50.889Z,6.70
2023-05-11T14:43:52.614Z,6.78
2023-05-11T14:45:54.602Z,5.85
2023-05-11T14:47:56.384Z,5.97
2023-05-11T14:49:58.409Z,6.07
2023-05-11T14:51:59.991Z,6.25
2023-05-11T14:54:01.625Z,6.22
2023-05-11T14:56:03.589Z,5.70
2023-05-11T14:58:10.111Z,5.97
2023-05-11T15:00:13.310Z,5.47
2023-05-11T15:02:14.908Z,5.78
2023-05-11T15:04:17.050Z,5.30
2023-05-11T15:06:22.438Z,5.60
2023-05-11T15:08:30.227Z,5.43
2023-05-11T15:10:32.325Z,4.80
2023-05-11T15:12:33.925Z,5.68
2023-05-11T15:14:35.871Z,5.90
2023-05-11T15:16:38.026Z,5.72
2023-05-11T15:18:41.052Z,5.60
2023-05-11T15:20:44.620Z,5.07
2023-05-11T15:22:46.252Z,5.65
2023-05-11T15:24:48.586Z,7.15
2023-05-11T15:26:50.216Z,9.57
2023-05-11T15:28:51.910Z,8.45
2023-05-11T15:30:53.493Z,7.93
2023-05-11T15:32:55.177Z,5.88
2023-05-11T15:34:59.736Z,5.85
2023-05-11T15:37:02.011Z,5.82
2023-05-11T15:39:04.169Z,5.82
2023-05-11T15:41:05.872Z,6.32
2023-05-11T15:43:07.745Z,5.60
2023-05-11T15:45:09.399Z,5.72
2023-05-11T15:47:10.969Z,5.65
2023-05-11T15:49:12.541Z,4.85
2023-05-11T15:51:14.218Z,4.90
2023-05-11T15:53:15.822Z,4.95
2023-05-11T15:55:17.535Z,4.90
2023-05-11T15:57:19.321Z,4.78
2023-05-11T15:59:21.102Z,4.88
2023-05-11T16:01:22.850Z,5.07
2023-05-11T16:03:24.990Z,4.40
2023-05-11T16:05:28.362Z,4.40
2023-05-11T16:07:29.929Z,5.00
2023-05-11T16:09:31.781Z,4.88
2023-05-11T16:11:33.584Z,4.90
2023-05-11T16:13:35.175Z,4.70
2023-05-11T16:15:36.831Z,4.60
2023-05-11T16:17:38.657Z,3.92
2023-05-11T16:19:40.275Z,4.72
2023-05-11T16:21:43.681Z,4.93
2023-05-11T16:23:45.817Z,3.83
2023-05-11T16:25:47.861Z,3.95
2023-05-11T16:27:49.494Z,4.22
2023-05-11T16:29:52.372Z,3.80
2023-05-11T16:31:54.056Z,4.37
2023-05-11T16:33:55.680Z,3.80
2023-05-11T16:35:57.379Z,4.10
2023-05-11T16:37:59.860Z,3.80
2023-05-11T16:40:02.046Z,4.40
2023-05-11T16:42:03.810Z,3.75
2023-05-11T16:44:05.561Z,4.00
2023-05-11T16:46:08.548Z,3.63
2023-05-11T16:48:10.552Z,3.95
2023-05-11T16:50:16.228Z,3.75
2023-05-11T16:52:18.082Z,4.20
2023-05-11T16:54:20.550Z,4.18
2023-05-11T16:56:22.311Z,4.32
2023-05-11T16:58:24.575Z,3.88
2023-05-11T17:00:26.619Z,4.45
2023-05-11T17:02:28.241Z,4.10
2023-05-11T17:04:29.841Z,4.88
2023-05-11T17:06:32.043Z,4.47
2023-05-11T17:08:34.322Z,4.35
2023-05-11T17:10:35.900Z,4.30
2023-05-11T17:12:37.512Z,4.47
2023-05-11T17:14:39.077Z,4.65
2023-05-11T17:16:40.898Z,4.07
2023-05-11T17:18:42.664Z,4.43
2023-05-11T17:20:44.324Z,3.83
2023-05-11T17:22:45.867Z,4.63
2023-05-11T17:24:47.473Z,4.03
2023-05-11T17:26:49.106Z,4.55
2023-05-11T17:28:50.905Z,4.05
2023-05-11T17:30:52.835Z,4.50
2023-05-11T17:32:54.787Z,4.93
2023-05-11T17:34:56.543Z,4.80
2023-05-11T17:36:58.575Z,5.22
2023-05-11T17:39:01.338Z,4.82
2023-05-11T17:41:06.615Z,4.90
2023-05-11T17:43:08.286Z,4.80
2023-05-11T17:45:10.279Z,5.55
2023-05-11T17:47:11.869Z,4.75
2023-05-11T17:49:13.499Z,4.85
2023-05-11T17:51:15.103Z,4.70
2023-05-11T17:53:16.715Z,4.57
2023-05-11T17:55:19.324Z,4.75
2023-05-11T17:57:23.366Z,4.85
2023-05-11T18:01:27.687Z,3.97
2023-05-11T18:03:29.578Z,4.40
2023-05-11T18:05:44.709Z,4.18
2023-05-11T18:07:49.931Z,4.40
2023-05-11T18:09:51.678Z,4.13
2023-05-11T18:11:53.217Z,4.43
2023-05-11T18:13:54.976Z,4.30
2023-05-11T18:15:57.497Z,3.95
2023-05-11T18:17:59.162Z,4.50
2023-05-11T18:20:00.788Z,4.57
2023-05-11T18:22:02.410Z,4.30
2023-05-11T18:24:04.923Z,4.32
2023-05-11T18:26:06.915Z,4.47
2023-05-11T18:28:08.644Z,4.70
2023-05-11T18:30:10.806Z,4.65
2023-05-11T18:32:12.420Z,4.72
2023-05-11T18:34:13.992Z,4.68
2023-05-11T18:36:16.283Z,4.60
2023-05-11T18:38:18.066Z,4.93
2023-05-11T18:40:20.161Z,4.60
2023-05-11T18:42:21.998Z,7.15
2023-05-11T18:44:23.645Z,5.00
2023-05-11T18:46:25.492Z,5.13
2023-05-11T18:48:27.130Z,4.80
2023-05-11T18:50:29.883Z,5.65
2023-05-11T18:52:31.449Z,5.15
2023-05-11T18:54:33.837Z,5.68
2023-05-11T18:56:35.718Z,4.97
2023-05-11T18:58:37.558Z,5.13
2023-05-11T19:00:39.528Z,5.75
2023-05-11T19:02:41.155Z,5.95
2023-05-11T19:04:42.954Z,6.05
2023-05-11T19:06:44.547Z,5.10
2023-05-11T19:08:46.181Z,5.30
2023-05-11T19:10:48.320Z,6.05
2023-05-11T19:12:50.377Z,5.25
2023-05-11T19:14:55.407Z,5.47
2023-05-11T19:16:57.053Z,5.97
2023-05-11T19:18:59.525Z,4.97
2023-05-11T19:21:02.902Z,5.38
2023-05-11T19:23:04.508Z,5.20
2023-05-11T19:25:07.321Z,5.80
2023-05-11T19:27:09.028Z,5.45
2023-05-11T19:29:12.248Z,5.68
2023-05-11T19:31:13.913Z,4.88
2023-05-11T19:33:15.537Z,5.40
2023-05-11T19:35:18.433Z,5.30
2023-05-11T19:37:20.148Z,4.90
2023-05-11T19:39:21.906Z,4.97
2023-05-11T19:41:23.474Z,5.60
2023-05-11T19:43:25.122Z,4.88
2023-05-11T19:45:26.737Z,5.10
2023-05-11T19:47:28.676Z,4.82
2023-05-11T19:49:30.309Z,5.95
2023-05-11T19:51:32.071Z,5.40
2023-05-11T19:53:33.803Z,5.53
2023-05-11T19:55:35.452Z,5.53
2023-05-11T19:57:37.740Z,5.30
2023-05-11T19:59:39.355Z,4.82
2023-05-11T20:01:40.980Z,5.22
2023-05-11T20:03:42.644Z,5.38
2023-05-11T20:05:44.458Z,4.82
2023-05-11T20:07:46.042Z,5.38
2023-05-11T20:09:47.622Z,5.55
2023-05-11T20:11:49.277Z,5.72
2023-05-11T20:13:51.166Z,4.70
2023-05-11T20:15:52.842Z,5.43
2023-05-11T20:17:54.538Z,5.68
2023-05-11T20:19:56.373Z,5.80
2023-05-11T20:21:58.514Z,6.57
2023-05-11T20:24:00.146Z,5.88
2023-05-11T20:26:01.765Z,5.90
2023-05-11T20:28:03.676Z,5.38
2023-05-11T20:30:06.209Z,5.88
2023-05-11T20:32:08.098Z,5.63
2023-05-11T20:34:09.791Z,5.50
2023-05-11T20:36:11.507Z,6.15
2023-05-11T20:38:13.112Z,6.13
2023-05-11T20:40:14.773Z,6.15
2023-05-11T20:42:16.384Z,6.13
2023-05-11T20:44:18.541Z,5.78
2023-05-11T20:46:20.742Z,5.57
2023-05-11T20:48:32.460Z,5.63
2023-05-11T20:50:40.429Z,5.93
2023-05-11T20:52:42.035Z,5.97
2023-05-11T20:54:43.756Z,6.00
2023-05-11T20:56:45.614Z,5.93
2023-05-11T20:58:47.513Z,5.40
2023-05-11T21:00:49.288Z,5.18
2023-05-11T21:02:51.076Z,5.65
2023-05-11T21:04:53.272Z,5.38
2023-05-11T21:06:55.338Z,5.65
2023-05-11T21:08:56.968Z,5.43
2023-05-11T21:10:58.548Z,5.43
2023-05-11T21:13:01.869Z,5.22
2023-05-11T21:15:03.743Z,5.53
2023-05-11T21:17:05.677Z,5.53
2023-05-11T21:19:07.682Z,5.57
2023-05-11T21:21:09.936Z,5.07
2023-05-11T21:23:11.626Z,5.15
2023-05-11T21:25:13.359Z,5.30
2023-05-11T21:27:15.095Z,4.57
2023-05-11T21:29:16.720Z,4.78
2023-05-11T21:31:18.393Z,4.60
2023-05-11T21:33:20.710Z,4.43
2023-05-11T21:35:22.366Z,4.78
2023-05-11T21:37:24.026Z,4.63
2023-05-11T21:39:25.735Z,4.90
2023-05-11T21:41:27.486Z,4.55
2023-05-11T21:43:29.109Z,4.80
2023-05-11T21:45:30.700Z,5.38
2023-05-11T21:47:32.472Z,4.30
2023-05-11T21:49:36.341Z,4.53
2023-05-11T21:53:40.562Z,4.78
2023-05-11T21:55:42.122Z,4.80
2023-05-11T21:57:43.803Z,4.60
2023-05-11T21:59:45.369Z,4.82
2023-05-11T22:01:49.132Z,5.30
2023-05-11T22:05:52.613Z,5.82
2023-05-11T22:08:00.383Z,5.80
2023-05-11T22:10:09.341Z,6.47
2023-05-11T22:12:10.925Z,6.28
2023-05-11T22:14:12.561Z,6.97
2023-05-11T22:16:14.225Z,6.93
2023-05-11T22:18:15.879Z,7.03
2023-05-11T22:20:18.137Z,6.95
2023-05-11T22:22:20.015Z,6.88
2023-05-11T22:24:21.768Z,6.55
2023-05-11T22:26:23.349Z,7.05
2023-05-11T22:28:24.958Z,7.57
2023-05-11T22:30:26.558Z,8.20
2023-05-11T22:32:28.123Z,8.13
2023-05-11T22:34:29.683Z,7.57
2023-05-11T22:36:31.315Z,8.68
2023-05-11T22:38:34.324Z,8.82
2023-05-11T22:40:35.946Z,8.95
2023-05-11T22:42:38.119Z,8.95
2023-05-11T22:44:40.476Z,9.52
2023-05-11T22:46:42.044Z,9.25
2023-05-11T22:48:43.795Z,10.02
2023-05-11T22:50:47.518Z,8.60
2023-05-11T22:52:49.094Z,8.95
2023-05-11T22:54:58.550Z,8.85
2023-05-11T22:57:01.590Z,9.52
2023-05-11T22:59:04.679Z,9.07
2023-05-11T23:01:06.377Z,9.32
2023-05-11T23:03:08.348Z,9.05
2023-05-11T23:05:10.211Z,9.55
2023-05-11T23:07:12.729Z,9.55
2023-05-11T23:09:16.011Z,9.73
2023-05-11T23:11:17.598Z,10.07
2023-05-11T23:13:19.815Z,9.18
2023-05-11T23:15:21.478Z,10.52
2023-05-11T23:17:23.204Z,9.55
2023-05-11T23:19:25.200Z,9.85
2023-05-11T23:21:26.937Z,10.82
2023-05-11T23:23:28.501Z,10.15
2023-05-11T23:25:30.143Z,10.32
2023-05-11T23:27:31.725Z,10.63
2023-05-11T23:29:33.368Z,10.55
2023-05-11T23:31:35.142Z,9.77
2023-05-11T23:33:36.762Z,10.10
2023-05-11T23:35:38.508Z,9.32
2023-05-11T23:37:40.181Z,10.07
2023-05-11T23:39:41.851Z,9.50
2023-05-11T23:41:43.445Z,9.20
2023-05-11T23:43:45.171Z,9.60
2023-05-11T23:45:46.982Z,10.23
2023-05-11T23:47:48.721Z,9.65
2023-05-11T23:49:50.813Z,9.15
2023-05-11T23:51:52.740Z,9.02
2023-05-11T23:53:54.338Z,8.55
2023-05-11T23:55:56.160Z,8.52
2023-05-11T23:57:58.793Z,9.35
